Time;durP1;ratioP1;P1;durP2;ratioP2;P2;SDS_P1;SDS_P2;PMS_P1;PMS_P2;Temp;Humidity;BMP_temperature;BMP_pressure;BME280_temperature;BME280_humidity;BME280_pressure;Samples;Min_cycle;Max_cycle;Signal;HPM_P1;HPM_P2
2021/01/08 00:08:19;;;;;;;27.17;18.12;;;;;;;6.10;67.35;99655.78;2373040;81;25419;-86
2021/01/08 00:13:01;;;;;;;26.68;17.12;;;;;;;6.11;67.33;99656.27;2421414;79;25611;-85
2021/01/08 00:16:36;;;;;;;22.32;15.83;;;;;;;6.10;67.32;99653.20;2378306;81;26340;-84
2021/01/08 00:20:40;;;;;;;22.42;16.70;;;;;;;6.10;67.31;99652.33;2242109;85;26291;-83
2021/01/08 00:38:45;;;;;;;25.50;18.20;;;;;;;6.04;67.25;99650.84;2347525;80;25693;-95
2021/01/08 00:50:32;;;;;;;23.80;17.62;;;;;;;6.02;67.19;99654.69;2297585;84;26288;-93
2021/01/08 01:05:07;;;;;;;26.37;18.40;;;;;;;6.02;67.10;99657.70;2509807;74;25831;-84
2021/01/08 01:08:29;;;;;;;26.45;17.57;;;;;;;5.97;67.14;99665.72;2493695;78;25696;-83
2021/01/08 01:11:50;;;;;;;23.25;17.52;;;;;;;5.97;67.13;99664.42;2490886;78;25643;-83
2021/01/08 01:15:17;;;;;;;27.25;18.48;;;;;;;5.98;67.15;99668.80;2475388;78;25616;-83
2021/01/08 01:18:47;;;;;;;26.60;18.02;;;;;;;5.98;67.15;99664.91;2494209;78;25751;-84
2021/01/08 01:22:36;;;;;;;26.82;17.77;;;;;;;5.98;67.13;99668.38;2487428;78;25536;-83
2021/01/08 01:30:44;;;;;;;23.90;17.17;;;;;;;5.98;67.11;99670.09;2469559;77;25735;-85
2021/01/08 01:34:05;;;;;;;25.65;17.55;;;;;;;5.98;67.10;99664.91;2472551;78;25586;-85
2021/01/08 01:37:45;;;;;;;23.50;18.02;;;;;;;5.98;67.11;99670.09;2466455;79;25940;-85
2021/01/08 01:41:06;;;;;;;21.50;16.90;;;;;;;5.98;67.11;99670.96;2480290;77;25701;-82
2021/01/08 01:45:13;;;;;;;25.02;18.15;;;;;;;5.98;67.10;99667.50;2450330;78;26203;-84
2021/01/08 01:48:34;;;;;;;22.42;17.70;;;;;;;5.98;67.11;99662.33;2463333;77;25661;-84
2021/01/08 01:52:00;;;;;;;21.60;15.45;;;;;;;5.98;67.11;99663.20;2465809;78;25650;-83
2021/01/08 01:55:43;;;;;;;23.07;16.90;;;;;;;5.98;67.10;99663.20;2476904;78;25690;-90
2021/01/08 02:10:05;;;;;;;23.50;16.60;;;;;;;5.99;67.10;99651.14;2386205;80;25578;-94
2021/01/08 02:19:12;;;;;;;21.40;16.85;;;;;;;5.94;67.11;99653.59;2355728;80;25819;-83
2021/01/08 02:23:39;;;;;;;21.95;16.75;;;;;;;5.94;67.13;99651.02;2215740;87;26246;-84
2021/01/08 02:42:13;;;;;;;24.02;17.10;;;;;;;5.97;67.13;99657.96;2115909;91;26282;-84
2021/01/08 02:57:13;;;;;;;22.87;16.63;;;;;;;6.00;67.13;99661.52;2235458;80;28096;-83
2021/01/08 03:00:58;;;;;;;21.45;16.60;;;;;;;5.95;67.11;99665.69;2173988;88;25840;-96
2021/01/08 03:05:12;;;;;;;26.87;16.40;;;;;;;5.96;67.13;99663.55;2191240;88;25782;-93
2021/01/08 03:08:40;;;;;;;22.45;16.35;;;;;;;5.96;67.12;99664.84;2185320;89;25748;-84
2021/01/08 03:12:06;;;;;;;20.48;16.15;;;;;;;5.96;67.13;99663.55;2190671;87;25836;-84
2021/01/08 03:15:46;;;;;;;22.22;15.85;;;;;;;5.98;67.13;99663.63;2195983;88;25670;-83
2021/01/08 03:19:23;;;;;;;21.57;17.27;;;;;;;5.98;67.09;99664.49;2188403;88;25793;-86
2021/01/08 03:27:34;;;;;;;20.92;16.15;;;;;;;5.98;67.09;99670.96;2186881;81;26213;-90
2021/01/08 03:32:02;;;;;;;22.17;16.62;;;;;;;5.99;67.07;99678.30;2179825;88;25759;-92
2021/01/08 03:35:41;;;;;;;20.60;15.85;;;;;;;5.98;67.05;99679.14;2189263;88;25781;-92
2021/01/08 03:39:11;;;;;;;19.10;15.63;;;;;;;5.97;67.04;99684.70;2181484;88;25719;-91
2021/01/08 03:43:14;;;;;;;20.90;15.85;;;;;;;5.96;67.03;99680.79;2193070;88;26051;-89
2021/01/08 03:46:43;;;;;;;20.68;15.20;;;;;;;5.98;67.02;99687.78;2201005;88;25725;-92
2021/01/08 03:50:14;;;;;;;20.60;16.07;;;;;;;5.98;67.02;99690.78;2187954;88;26119;-91
2021/01/08 03:54:07;;;;;;;23.42;16.55;;;;;;;5.97;67.01;99685.12;2180690;89;26269;-90
2021/01/08 04:26:07;;;;;;;24.35;15.90;;;;;;;5.93;67.00;99679.40;2435819;78;25453;-91
2021/01/08 04:29:37;;;;;;;21.40;15.30;;;;;;;5.92;66.96;99682.38;2438874;78;25684;-91
2021/01/08 04:33:12;;;;;;;22.62;16.50;;;;;;;5.93;66.98;99683.28;2435107;79;26027;-91
2021/01/08 04:36:36;;;;;;;18.98;14.75;;;;;;;5.91;66.95;99678.91;2447898;79;25662;-91
2021/01/08 04:40:41;;;;;;;19.03;15.30;;;;;;;5.96;66.91;99680.37;2606252;74;25755;-91
2021/01/08 04:44:05;;;;;;;20.43;14.85;;;;;;;5.90;66.92;99686.61;2501636;78;35302;-89
2021/01/08 04:48:52;;;;;;;17.77;15.18;;;;;;;5.90;66.90;99685.31;2404421;82;25981;-90
2021/01/08 04:52:33;;;;;;;20.85;14.63;;;;;;;5.89;66.90;99686.16;2500392;78;25753;-83
2021/01/08 04:56:05;;;;;;;17.27;14.87;;;;;;;5.87;66.88;99682.63;2485593;79;25971;-83
2021/01/08 04:59:29;;;;;;;18.32;13.88;;;;;;;5.85;66.87;99690.36;2458603;78;25689;-86
2021/01/08 05:03:22;;;;;;;20.80;14.65;;;;;;;5.86;66.87;99693.81;2440173;80;25962;-85
2021/01/08 05:22:30;;;;;;;19.00;13.67;;;;;;;5.86;66.83;99692.10;2481506;74;25962;-83
2021/01/08 05:26:33;;;;;;;19.05;15.13;;;;;;;5.81;66.85;99700.58;2423739;80;26218;-83
2021/01/08 05:30:33;;;;;;;18.80;14.33;;;;;;;5.80;66.84;99695.78;2274832;85;25970;-87
2021/01/08 05:45:25;;;;;;;19.33;14.27;;;;;;;5.82;66.79;99695.85;2518102;78;25484;-92
2021/01/08 05:49:05;;;;;;;18.98;14.20;;;;;;;5.75;66.81;99696.08;2373643;81;25678;-83
2021/01/08 06:03:33;;;;;;;21.20;17.37;;;;;;;5.76;66.75;99706.00;2374032;80;34790;-83
2021/01/08 06:23:06;;;;;;;25.47;15.87;;;;;;;5.79;66.55;99725.08;2404938;80;28641;-83
2021/01/08 06:27:25;;;;;;;18.27;14.50;;;;;;;5.75;66.53;99736.58;2281159;84;26109;-84
2021/01/08 06:30:35;;;;;;;19.25;13.88;;;;;;;5.71;66.53;99739.90;2270535;84;25960;-83
2021/01/08 06:34:54;;;;;;;17.45;14.07;;;;;;;5.68;66.53;99740.25;2119639;91;26246;-82
2021/01/08 06:44:17;;;;;;;;;;;;;;;;;;;;;
2021/01/08 06:48:00;;;;;;;;;;;;;;;5.64;66.54;99751.33;1980106;99;26247;-82
2021/01/08 07:07:08;;;;;;;;;;;;;;;5.60;66.58;99759.82;2464214;79;25650;-83
2021/01/08 07:11:36;;;;;;;18.20;14.30;;;;;;;5.65;66.55;99763.42;2572977;76;25644;-83
2021/01/08 07:14:58;;;;;;;24.15;14.90;;;;;;;5.61;66.56;99767.16;2381942;79;25741;-84
2021/01/08 07:18:28;;;;;;;18.17;14.20;;;;;;;5.61;66.58;99770.63;2398428;82;25817;-84
2021/01/08 07:22:02;;;;;;;24.02;15.65;;;;;;;5.64;66.57;99772.44;2400050;82;25235;-87
2021/01/08 07:25:30;;;;;;;24.10;15.75;;;;;;;5.65;66.52;99772.89;2402471;82;25713;-84
2021/01/08 07:28:57;;;;;;;20.88;15.53;;;;;;;5.65;66.50;99773.77;2372594;82;25777;-89
2021/01/08 07:57:19;;;;;;;19.90;15.38;;;;;;;5.71;66.37;99793.80;2397868;79;25676;-93
2021/01/08 08:12:29;;;;;;;20.57;14.47;;;;;;;5.83;66.24;99801.94;2409865;77;25701;-90
2021/01/08 08:16:33;;;;;;;21.75;14.55;;;;;;;5.81;66.24;99807.91;2344051;82;25792;-93
2021/01/08 08:29:37;;;;;;;23.55;15.43;;;;;;;5.90;66.12;99812.08;2336742;81;25968;-91
2021/01/08 08:52:34;;;;;;;28.12;16.42;;;;;;;6.05;65.88;99813.92;2290994;84;26391;-92
2021/01/08 09:21:40;;;;;;;;;;;;;;;6.30;65.58;99816.86;2318820;82;26106;-92
2021/01/08 09:47:26;;;;;;;23.33;14.70;;;;;;;6.68;65.11;99795.56;2473196;77;26170;-89
2021/01/08 09:51:03;;;;;;;20.62;15.18;;;;;;;6.66;65.12;99796.83;2425511;79;26300;-89
2021/01/08 09:55:16;;;;;;;23.67;15.78;;;;;;;6.71;65.08;99792.64;2451855;79;25879;-89
2021/01/08 09:59:22;;;;;;;22.98;15.10;;;;;;;6.78;65.00;99789.81;2298859;82;25802;-87
2021/01/08 10:02:58;;;;;;;21.75;17.05;;;;;;;6.84;64.91;99792.59;2284496;83;26456;-86
2021/01/08 10:11:26;;;;;;;21.73;15.05;;;;;;;6.95;64.78;99789.01;2224532;87;25752;-89
2021/01/08 10:16:07;;;;;;;21.47;15.47;;;;;;;7.09;64.55;99774.75;2460353;78;28805;-84
2021/01/08 10:19:35;;;;;;;20.65;14.40;;;;;;;7.01;64.30;99787.47;2423803;80;25983;-85
2021/01/08 10:23:39;;;;;;;24.00;13.15;;;;;;;7.05;65.03;99788.05;2409401;80;25638;-83
2021/01/08 10:27:04;;;;;;;19.67;13.32;;;;;;;7.08;64.86;99780.75;2404289;80;25948;-87
2021/01/08 10:30:32;;;;;;;22.37;12.47;;;;;;;7.20;65.90;99787.58;2328514;83;26020;-83
2021/01/08 10:34:12;;;;;;;24.70;14.38;;;;;;;7.31;66.31;99782.25;2407145;80;25949;-79
2021/01/08 10:37:37;;;;;;;22.67;13.55;;;;;;;7.45;66.37;99785.64;2326801;83;25628;-88
2021/01/08 10:41:05;;;;;;;26.62;14.95;;;;;;;7.92;69.67;99776.89;2406374;80;25708;-81
2021/01/08 10:48:38;;;;;;;25.55;16.02;;;;;;;8.31;67.20;99769.18;2192343;89;25782;-80
2021/01/08 10:52:38;;;;;;;24.57;15.07;;;;;;;8.27;66.66;99777.75;2516040;76;25588;-93
2021/01/08 10:56:02;;;;;;;23.07;16.12;;;;;;;8.20;66.67;99769.33;2406396;80;26330;-82
2021/01/08 10:59:25;;;;;;;26.07;16.12;;;;;;;8.16;66.54;99768.81;2399630;80;25964;-81
2021/01/08 11:02:55;;;;;;;23.18;15.25;;;;;;;8.11;66.41;99766.12;2415827;80;26410;-82
2021/01/08 11:06:25;;;;;;;24.23;15.38;;;;;;;8.12;66.52;99763.09;2425405;80;25685;-80
2021/01/08 11:09:46;;;;;;;44.42;13.13;;;;;;;8.15;66.34;99767.06;2421072;81;25626;-82
2021/01/08 11:13:23;;;;;;;22.48;15.05;;;;;;;8.19;67.06;99769.76;2396246;80;26139;-80
2021/01/08 11:16:53;;;;;;;20.97;16.02;;;;;;;8.27;66.90;99766.06;2393531;80;26112;-82
2021/01/08 11:25:00;;;;;;;24.85;15.15;;;;;;;8.22;66.48;99766.36;2379498;81;26171;-82
2021/01/08 11:28:42;;;;;;;27.37;14.83;;;;;;;8.21;66.62;99760.72;2457983;78;26309;-85
2021/01/08 11:32:27;;;;;;;22.60;14.95;;;;;;;8.21;66.67;99770.69;2463914;77;25854;-84
2021/01/08 11:36:04;;;;;;;33.50;18.15;;;;;;;8.18;66.69;99767.14;2460972;78;25772;-85
2021/01/08 11:39:41;;;;;;;25.52;16.70;;;;;;;8.15;66.69;99769.23;2446948;78;25768;-86
2021/01/08 11:44:04;;;;;;;26.07;17.65;;;;;;;8.12;66.74;99762.67;2444094;77;25644;-91
2021/01/08 11:48:04;;;;;;;29.42;18.20;;;;;;;8.11;66.75;99770.44;2444838;78;26228;-91
2021/01/08 11:51:25;;;;;;;32.17;21.23;;;;;;;8.08;66.75;99766.47;2447010;77;25957;-84
2021/01/08 11:54:47;;;;;;;37.00;23.45;;;;;;;8.06;66.75;99763.82;2444120;79;25815;-87
2021/01/08 11:58:25;;;;;;;41.30;23.83;;;;;;;8.03;66.68;99769.84;2437537;79;26278;-86
2021/01/08 12:01:47;;;;;;;173.23;90.63;;;;;;;8.01;66.65;99771.94;2440560;79;25723;-79
2021/01/08 12:05:13;;;;;;;201.85;102.60;;;;;;;7.97;66.57;99777.47;2442789;79;25958;-80
2021/01/08 12:08:42;;;;;;;207.67;109.50;;;;;;;7.91;66.65;99772.13;2357414;82;25844;-80
2021/01/08 12:12:05;;;;;;;194.05;103.80;;;;;;;7.91;66.71;99776.02;2341130;81;26227;-79
2021/01/08 12:15:57;;;;;;;192.47;99.35;;;;;;;7.90;66.75;99772.10;2377620;81;25831;-81
2021/01/08 12:19:26;;;;;;;199.05;102.05;;;;;;;7.84;66.50;99776.71;2338106;80;26482;-81
2021/01/08 12:23:15;;;;;;;205.33;107.80;;;;;;;7.78;66.63;99778.72;2332829;81;26192;-81
2021/01/08 12:26:37;;;;;;;220.10;116.60;;;;;;;7.71;66.54;99771.63;2340347;83;25756;-82
2021/01/08 12:30:56;;;;;;;;;;;;;;;;;;;;;
2021/01/08 12:34:35;;;;;;;243.95;126.53;;;;;;;7.64;66.69;99775.34;2346378;83;25779;-82
2021/01/08 12:38:03;;;;;;;281.98;147.37;;;;;;;7.64;66.65;99783.99;2328025;83;25667;-83
2021/01/08 12:45:34;;;;;;;225.95;117.60;;;;;;;7.66;66.89;99785.31;2309938;83;25611;-85
2021/01/08 12:48:56;;;;;;;173.95;90.42;;;;;;;7.63;66.87;99786.53;2343996;83;26099;-86
2021/01/08 12:52:28;;;;;;;145.57;77.75;;;;;;;7.59;66.59;99786.88;2318441;82;26035;-84
2021/01/08 13:01:25;;;;;;;101.02;53.05;;;;;;;7.48;65.94;99789.19;2329088;83;25766;-80
2021/01/08 13:05:11;;;;;;;81.55;44.35;;;;;;;7.37;65.41;99784.57;2336871;83;25865;-83
2021/01/08 13:08:33;;;;;;;67.62;36.75;;;;;;;7.29;65.31;99783.95;2280233;85;25760;-86
2021/01/08 13:12:05;;;;;;;63.30;34.65;;;;;;;7.24;64.97;99789.83;2325020;83;26188;-89
2021/01/08 13:15:38;;;;;;;51.13;30.52;;;;;;;7.18;64.72;99787.06;2333859;83;25691;-84
2021/01/08 13:19:07;;;;;;;52.03;29.92;;;;;;;7.14;64.51;99792.59;2282928;84;26517;-85
2021/01/08 13:22:30;;;;;;;44.63;26.48;;;;;;;7.08;64.26;99801.48;2189715;86;25728;-91
2021/01/08 13:26:00;;;;;;;41.42;25.48;;;;;;;7.02;64.24;99800.00;2213070;87;25777;-89
2021/01/08 13:29:31;;;;;;;39.05;24.55;;;;;;;7.00;64.00;99792.63;2232732;87;25753;-85
2021/01/08 13:33:04;;;;;;;39.50;23.92;;;;;;;6.95;63.84;99796.78;2249917;85;25751;-91
2021/01/08 13:36:32;;;;;;;36.25;24.25;;;;;;;6.90;63.66;99796.66;2200438;86;25811;-88
2021/01/08 13:40:41;;;;;;;34.23;23.10;;;;;;;6.85;63.44;99791.75;2185517;87;25861;-85
2021/01/08 13:44:03;;;;;;;31.87;20.23;;;;;;;6.80;63.33;99795.94;2212002;87;25685;-87
2021/01/08 13:47:29;;;;;;;35.73;24.18;;;;;;;6.74;63.09;99791.44;2224910;87;25609;-88
2021/01/08 13:50:59;;;;;;;31.42;22.00;;;;;;;6.71;62.98;99792.64;2096782;90;25647;-87
2021/01/08 13:54:20;;;;;;;36.65;21.10;;;;;;;6.69;62.93;99802.52;2106142;91;26591;-91
2021/01/08 13:58:04;;;;;;;34.90;20.77;;;;;;;6.63;62.83;99800.20;2102850;90;26131;-84
2021/01/08 14:02:01;;;;;;;37.35;22.17;;;;;;;6.60;62.71;99800.10;2135419;90;26221;-84
2021/01/08 14:05:29;;;;;;;38.10;22.05;;;;;;;6.56;62.65;99798.26;2105968;92;25732;-88
2021/01/08 14:09:11;;;;;;;33.35;21.68;;;;;;;6.53;62.62;99794.28;2136650;88;25996;-84
2021/01/08 14:13:06;;;;;;;33.28;21.77;;;;;;;6.51;62.49;99797.64;2176505;88;25715;-89
2021/01/08 14:16:31;;;;;;;34.50;21.62;;;;;;;6.48;62.38;99801.44;2158927;88;26306;-84
2021/01/08 14:20:08;;;;;;;33.18;21.68;;;;;;;6.45;62.34;99798.36;2165760;89;26206;-84
2021/01/08 14:24:07;;;;;;;34.13;20.45;;;;;;;6.43;62.15;99802.59;2227805;86;25714;-85
2021/01/08 14:27:28;;;;;;;29.25;20.43;;;;;;;6.38;62.20;99801.17;2231160;86;25928;-84
2021/01/08 14:31:04;;;;;;;29.25;19.98;;;;;;;6.36;62.07;99797.64;2199900;87;26019;-83
2021/01/08 14:34:30;;;;;;;35.83;21.60;;;;;;;6.35;62.06;99798.91;2194327;87;26259;-83
2021/01/08 14:38:41;;;;;;;36.03;22.48;;;;;;;6.31;61.92;99801.82;2184837;87;26116;-82
2021/01/08 14:42:05;;;;;;;37.73;22.15;;;;;;;6.29;61.87;99802.17;2199054;87;25794;-83
2021/01/08 14:49:30;;;;;;;32.80;21.68;;;;;;;6.26;61.81;99808.55;2207393;87;25841;-84
2021/01/08 14:53:10;;;;;;;38.00;23.70;;;;;;;6.23;61.74;99803.27;2228888;86;26446;-82
2021/01/08 14:56:49;;;;;;;37.30;23.07;;;;;;;6.22;61.64;99809.70;2237156;85;26284;-82
2021/01/08 15:00:45;;;;;;;36.50;23.00;;;;;;;6.20;61.68;99803.59;2209900;86;25631;-83
2021/01/08 15:04:34;;;;;;;36.33;22.80;;;;;;;6.16;61.56;99800.02;2234421;85;25674;-84
2021/01/08 15:07:55;;;;;;;39.33;24.15;;;;;;;6.12;61.57;99802.94;2119733;89;26252;-82
2021/01/08 15:11:36;;;;;;;34.45;22.50;;;;;;;6.10;61.63;99808.45;2128175;89;26168;-82
2021/01/08 15:15:10;;;;;;;38.40;22.33;;;;;;;6.07;61.43;99807.06;2125487;90;25836;-82
2021/01/08 15:18:33;;;;;;;38.90;23.73;;;;;;;6.04;61.53;99810.87;2113847;91;25851;-84
2021/01/08 15:22:14;;;;;;;35.70;22.27;;;;;;;6.02;61.49;99811.65;2145186;90;26032;-82
2021/01/08 15:58:46;;;;;;;36.47;23.57;;;;;;;5.76;61.73;99828.43;2404840;81;25552;-85
2021/01/08 16:02:08;;;;;;;41.80;26.00;;;;;;;5.72;61.79;99842.51;2377467;83;26276;-79
2021/01/08 16:06:00;;;;;;;43.65;26.00;;;;;;;5.70;61.82;99833.39;2348107;83;26128;-80
2021/01/08 16:09:44;;;;;;;43.40;24.87;;;;;;;5.69;61.79;99826.05;2364707;82;25673;-83
2021/01/08 16:13:09;;;;;;;46.25;27.50;;;;;;;5.69;61.83;99831.64;2335798;82;25796;-77
2021/01/08 16:25:37;;;;;;;49.77;27.98;;;;;;;5.66;61.78;99840.16;2412026;78;25326;-93
2021/01/08 16:29:01;;;;;;;46.15;26.77;;;;;;;5.65;61.83;99841.00;2244301;86;26260;-90
2021/01/08 16:32:53;;;;;;;41.63;26.17;;;;;;;5.69;61.80;99838.98;2451544;79;25522;-90
2021/01/08 16:51:14;;;;;;;47.97;28.97;;;;;;;5.61;61.81;99844.31;2403443;80;25537;-85
2021/01/08 16:55:10;;;;;;;46.13;27.45;;;;;;;5.54;61.92;99850.10;2254128;85;25872;-82
2021/01/08 17:10:18;;;;;;;44.70;28.53;;;;;;;5.52;61.94;99850.45;2435918;79;27095;-89
2021/01/08 17:13:52;;;;;;;44.03;28.23;;;;;;;5.45;61.96;99851.94;2365464;80;25718;-86
2021/01/08 17:17:14;;;;;;;46.98;28.05;;;;;;;5.46;61.94;99859.27;2375792;80;26009;-88
2021/01/08 17:20:36;;;;;;;47.67;29.87;;;;;;;5.44;61.95;99850.61;2392171;80;25784;-86
2021/01/08 17:24:09;;;;;;;52.60;30.12;;;;;;;5.43;61.94;99860.07;2367022;80;26176;-85
2021/01/08 17:27:44;;;;;;;51.68;29.45;;;;;;;5.43;61.95;99866.91;2338335;82;25781;-82
2021/01/08 17:31:44;;;;;;;51.20;30.45;;;;;;;5.41;61.93;99866.88;2329455;82;25745;-81
2021/01/08 17:35:33;;;;;;;51.08;31.02;;;;;;;5.42;61.98;99871.63;2220007;86;25773;-85
2021/01/08 17:39:13;;;;;;;53.03;30.57;;;;;;;5.44;61.98;99863.53;2577733;76;26049;-84
2021/01/08 17:42:52;;;;;;;51.28;29.63;;;;;;;5.39;61.97;99869.80;2497271;76;25658;-82
2021/01/08 17:46:42;;;;;;;55.60;31.97;;;;;;;5.39;62.03;99865.92;2476334;78;25672;-82
2021/01/08 17:51:22;;;;;;;59.13;38.17;;;;;;;5.43;61.91;99870.80;2519987;77;34733;-83
2021/01/08 17:59:12;;;;;;;52.70;30.82;;;;;;;5.53;61.82;99874.59;2191751;86;26518;-83
2021/01/08 18:14:33;;;;;;;56.00;34.43;;;;;;;5.38;61.85;99873.22;2489237;77;27415;-83
2021/01/08 18:18:10;;;;;;;61.48;34.30;;;;;;;5.32;61.91;99877.30;2341639;81;25998;-86
2021/01/08 18:21:43;;;;;;;61.37;32.85;;;;;;;5.29;61.92;99870.72;2355460;82;26549;-85
2021/01/08 18:25:13;;;;;;;54.55;31.07;;;;;;;5.30;61.94;99880.22;2361960;82;25956;-90
2021/01/08 18:29:06;;;;;;;56.93;32.30;;;;;;;5.34;62.04;99872.66;2558563;75;25591;-87
2021/01/08 18:32:32;;;;;;;53.63;31.97;;;;;;;5.31;62.14;99874.25;2487379;78;25710;-90
2021/01/08 18:36:34;;;;;;;50.43;30.05;;;;;;;5.32;62.24;99872.13;2504089;77;26140;-89
2021/01/08 18:40:02;;;;;;;51.95;29.65;;;;;;;5.34;62.31;99875.66;2388539;80;26184;-87
2021/01/08 18:44:06;;;;;;;53.50;31.87;;;;;;;5.41;62.41;99872.46;2516184;77;28047;-81
2021/01/08 18:47:38;;;;;;;57.15;32.23;;;;;;;5.36;62.49;99877.45;2462807;79;25838;-78
2021/01/08 18:51:00;;;;;;;51.30;32.08;;;;;;;5.38;62.54;99880.11;2463864;80;25676;-77
2021/01/08 18:54:40;;;;;;;54.30;32.60;;;;;;;5.39;62.61;99883.14;2425443;79;25737;-76
2021/01/08 18:58:01;;;;;;;52.88;32.53;;;;;;;5.39;62.67;99881.86;2461476;79;25675;-83
2021/01/08 19:01:38;;;;;;;55.92;31.50;;;;;;;5.40;62.73;99888.39;2451037;79;25691;-93
2021/01/08 19:05:24;;;;;;;56.63;31.40;;;;;;;5.41;62.78;99884.09;2413504;79;25776;-82
2021/01/08 19:09:12;;;;;;;48.73;30.80;;;;;;;5.42;62.84;99885.42;2388093;82;25741;-80
2021/01/08 19:12:34;;;;;;;52.30;31.70;;;;;;;5.44;62.90;99891.97;2375355;81;25668;-80
2021/01/08 19:16:39;;;;;;;56.48;31.27;;;;;;;5.44;62.95;99886.80;2383744;82;25423;-86
2021/01/08 19:20:08;;;;;;;49.60;30.20;;;;;;;5.44;62.99;99891.55;2386264;82;25745;-89
2021/01/08 19:23:37;;;;;;;51.80;32.67;;;;;;;5.48;63.03;99905.88;2396925;81;25689;-78
2021/01/08 19:30:38;;;;;;;59.70;32.60;;;;;;;5.49;63.10;99902.46;2411174;80;25670;-83
2021/01/08 19:34:24;;;;;;;50.88;30.05;;;;;;;5.48;63.16;99909.34;2370738;81;25733;-92
2021/01/08 19:37:52;;;;;;;51.68;30.77;;;;;;;5.49;63.18;99904.63;2418786;80;25713;-79
2021/01/08 19:41:24;;;;;;;48.98;30.72;;;;;;;5.50;63.21;99906.41;2377866;80;26121;-80
2021/01/08 19:45:09;;;;;;;55.40;31.85;;;;;;;5.52;63.24;99913.79;2369939;81;26018;-79
2021/01/08 19:48:31;;;;;;;53.65;33.00;;;;;;;5.52;63.29;99911.63;2394705;80;25960;-80
2021/01/08 19:52:00;;;;;;;55.17;32.42;;;;;;;5.53;63.31;99905.62;2393570;81;26013;-78
2021/01/08 19:56:04;;;;;;;53.60;31.97;;;;;;;5.53;63.33;99909.08;2368257;81;25694;-90
2021/01/08 19:59:43;;;;;;;52.93;30.32;;;;;;;5.54;63.36;99907.40;2374225;81;25770;-77
2021/01/08 20:03:17;;;;;;;52.50;30.97;;;;;;;5.54;63.40;99910.86;2374580;82;25698;-78
2021/01/08 20:06:42;;;;;;;53.50;29.87;;;;;;;5.55;63.43;99915.20;2413872;79;25736;-85
2021/01/08 20:10:07;;;;;;;52.50;30.72;;;;;;;5.56;63.45;99915.66;2419290;81;25627;-80
2021/01/08 20:13:29;;;;;;;52.20;30.20;;;;;;;5.57;63.48;99922.61;2420657;80;25664;-78
2021/01/08 20:16:50;;;;;;;56.23;27.90;;;;;;;5.57;63.50;99922.61;2418622;81;25694;-77
2021/01/08 20:20:14;;;;;;;57.25;29.70;;;;;;;5.66;65.28;99923.34;2456997;80;26304;-77
2021/01/08 20:23:36;;;;;;;57.15;30.40;;;;;;;5.68;65.15;99909.64;2409054;81;25785;-76
2021/01/08 20:27:04;;;;;;;60.55;32.20;;;;;;;5.69;65.21;99908.80;2390533;80;25598;-77
2021/01/08 20:30:26;;;;;;;59.35;32.25;;;;;;;5.69;65.28;99908.80;2409930;80;25895;-77
2021/01/08 20:33:48;;;;;;;62.25;33.18;;;;;;;5.69;65.35;99911.39;2422565;81;25737;-77
2021/01/08 20:37:21;;;;;;;61.50;29.70;;;;;;;5.69;65.38;99911.81;2412640;81;26101;-77
2021/01/08 20:40:59;;;;;;;49.88;29.42;;;;;;;5.69;65.40;99913.10;2406757;78;25670;-77
2021/01/08 20:45:06;;;;;;;52.62;30.25;;;;;;;5.69;65.40;99921.73;2387991;80;25857;-79
2021/01/08 20:48:28;;;;;;;56.37;31.17;;;;;;;5.70;65.41;99926.48;2358819;81;25761;-80
2021/01/08 20:51:56;;;;;;;51.28;29.42;;;;;;;5.70;65.38;99925.20;2359119;82;25893;-79
2021/01/08 20:55:20;;;;;;;56.02;31.95;;;;;;;5.70;65.36;99918.73;2350702;82;26240;-79
2021/01/08 20:58:41;;;;;;;50.95;31.27;;;;;;;5.71;65.32;99928.69;2352972;82;25671;-80
2021/01/08 21:02:07;;;;;;;55.12;30.10;;;;;;;5.72;65.30;99926.56;2356976;82;25647;-78
2021/01/08 21:05:33;;;;;;;54.67;30.62;;;;;;;5.71;65.27;99936.45;2350906;82;26384;-79
2021/01/08 21:08:58;;;;;;;58.33;30.50;;;;;;;5.71;65.22;99937.74;2349821;82;25671;-79
2021/01/08 21:12:32;;;;;;;54.73;31.52;;;;;;;5.71;65.20;99928.69;2348951;83;25629;-80
2021/01/08 21:15:54;;;;;;;51.28;30.88;;;;;;;5.70;65.18;99932.95;2349588;82;26091;-80
2021/01/08 21:19:17;;;;;;;50.10;30.32;;;;;;;5.70;65.15;99931.66;2347552;82;25691;-80
2021/01/08 21:22:45;;;;;;;53.45;32.48;;;;;;;5.72;65.13;99936.91;2366933;80;25764;-86
2021/01/08 21:26:07;;;;;;;52.53;30.93;;;;;;;5.71;65.11;99934.73;2368218;80;25746;-84
2021/01/08 21:29:31;;;;;;;55.23;29.92;;;;;;;5.72;65.08;99939.08;2333745;82;25420;-76
2021/01/08 21:32:54;;;;;;;56.28;32.55;;;;;;;5.71;65.09;99942.91;2363999;82;25675;-82
2021/01/08 21:36:16;;;;;;;50.38;30.50;;;;;;;5.72;65.07;99953.72;2437596;80;25738;-79
2021/01/08 21:44:08;;;;;;;50.83;32.40;;;;;;;5.71;65.06;99950.26;2436988;81;25696;-78
2021/01/08 21:47:43;;;;;;;;;;;;;;;;;;;;;
2021/01/08 21:51:58;;;;;;;53.58;30.95;;;;;;;5.69;65.03;99960.53;2422874;81;25813;-87
2021/01/08 21:55:37;;;;;;;50.43;29.80;;;;;;;5.69;65.04;99960.53;2431914;78;25797;-77
2021/01/08 21:58:59;;;;;;;59.63;31.97;;;;;;;5.68;64.99;99957.91;2425630;80;26101;-78
2021/01/08 22:02:26;;;;;;;55.78;33.18;;;;;;;5.68;64.98;99961.78;2413259;80;25908;-78
2021/01/08 22:05:48;;;;;;;48.52;30.88;;;;;;;5.68;64.98;99958.78;2428195;80;25785;-80
2021/01/08 22:09:25;;;;;;;52.27;31.85;;;;;;;5.68;64.97;99961.36;2425772;80;25842;-78
2021/01/08 22:12:59;;;;;;;55.25;31.97;;;;;;;5.68;64.99;99966.53;2430139;79;25652;-79
2021/01/08 22:16:28;;;;;;;53.33;31.97;;;;;;;5.67;64.98;99967.38;2422277;80;25905;-76
2021/01/08 22:20:04;;;;;;;52.70;31.60;;;;;;;5.73;64.98;99964.11;2572037;76;25654;-79
2021/01/08 22:23:41;;;;;;;52.08;31.60;;;;;;;5.68;64.97;99966.53;2442971;79;25593;-78
2021/01/08 22:53:05;;;;;;;49.33;30.30;;;;;;;5.66;65.06;99966.00;2372482;79;25859;-78
